Time;durP1;ratioP1;P1;durP2;ratioP2;P2;SDS_P1;SDS_P2;PMS_P1;PMS_P2;Temp;Humidity;BMP_temperature;BMP_pressure;BME280_temperature;BME280_humidity;BME280_pressure;Samples;Min_cycle;Max_cycle;Signal;HPM_P1;HPM_P2
2022/11/25 00:00:00;;;;;;;1.1;1.1;;;;;;;8.3;100.0;100730;;;;
2022/11/25 00:01:05;;;;;;;1.1;1.1;;;;;;;8.3;100.0;100730;;;;
2022/11/25 00:02:00;;;;;;;1.1;1.1;;;;;;;8.3;100.0;100730;;;;
2022/11/25 00:03:00;;;;;;;1.1;1.1;;;;;;;8.2;100.0;100730;;;;
2022/11/25 00:04:00;;;;;;;1.1;1.1;;;;;;;8.2;100.0;100730;;;;
2022/11/25 00:05:00;;;;;;;1.1;1.1;;;;;;;8.3;100.0;100730;;;;
2022/11/25 00:06:08;;;;;;;1.1;1.1;;;;;;;8.3;100.0;100730;;;;
2022/11/25 00:07:00;;;;;;;1.1;1.1;;;;;;;8.3;100.0;100730;;;;
2022/11/25 00:08:00;;;;;;;1.2;1.2;;;;;;;8.3;100.0;100730;;;;
2022/11/25 00:09:02;;;;;;;1.2;1.2;;;;;;;8.4;100.0;100720;;;;
2022/11/25 00:10:00;;;;;;;1.2;1.2;;;;;;;8.4;100.0;100720;;;;
2022/11/25 00:11:00;;;;;;;1.2;1.2;;;;;;;8.3;100.0;100720;;;;
2022/11/25 00:12:00;;;;;;;1.2;1.2;;;;;;;8.3;100.0;100720;;;;
2022/11/25 00:13:00;;;;;;;1.2;1.2;;;;;;;8.3;100.0;100710;;;;
2022/11/25 00:14:00;;;;;;;1.2;1.2;;;;;;;8.3;100.0;100710;;;;
2022/11/25 00:15:00;;;;;;;1.2;1.2;;;;;;;8.3;100.0;100720;;;;
2022/11/25 00:16:01;;;;;;;1.2;1.2;;;;;;;8.3;100.0;100720;;;;
2022/11/25 00:17:00;;;;;;;1.2;1.2;;;;;;;8.3;100.0;100720;;;;
2022/11/25 00:18:00;;;;;;;1.2;1.2;;;;;;;8.3;100.0;100720;;;;
2022/11/25 00:19:00;;;;;;;1.2;1.2;;;;;;;8.2;100.0;100710;;;;
2022/11/25 00:20:03;;;;;;;1.2;1.2;;;;;;;8.2;100.0;100710;;;;
2022/11/25 00:21:08;;;;;;;1.2;1.2;;;;;;;8.3;100.0;100710;;;;
2022/11/25 00:22:00;;;;;;;1.2;1.2;;;;;;;8.3;100.0;100710;;;;
2022/11/25 00:23:00;;;;;;;1.2;1.2;;;;;;;8.3;100.0;100700;;;;
2022/11/25 00:24:01;;;;;;;1.2;1.2;;;;;;;8.3;100.0;100700;;;;
2022/11/25 00:25:00;;;;;;;1.2;1.2;;;;;;;8.3;100.0;100710;;;;
2022/11/25 00:26:08;;;;;;;1.2;1.2;;;;;;;8.3;100.0;100710;;;;
2022/11/25 00:27:03;;;;;;;1.2;1.2;;;;;;;8.4;100.0;100710;;;;
2022/11/25 00:28:00;;;;;;;1.1;1.1;;;;;;;8.4;100.0;100710;;;;
2022/11/25 00:29:01;;;;;;;1.1;1.1;;;;;;;8.3;100.0;100710;;;;
2022/11/25 00:30:00;;;;;;;1.1;1.1;;;;;;;8.3;100.0;100710;;;;
2022/11/25 00:31:08;;;;;;;1.1;1.1;;;;;;;8.4;100.0;100710;;;;
2022/11/25 00:32:00;;;;;;;1.1;1.1;;;;;;;8.4;100.0;100710;;;;
2022/11/25 00:33:00;;;;;;;1.1;1.1;;;;;;;8.4;100.0;100710;;;;
2022/11/25 00:34:00;;;;;;;1.1;1.1;;;;;;;8.4;100.0;100710;;;;
2022/11/25 00:35:00;;;;;;;1.1;1.1;;;;;;;8.6;100.0;100700;;;;
2022/11/25 00:36:01;;;;;;;1.1;1.1;;;;;;;8.6;100.0;100700;;;;
2022/11/25 00:37:00;;;;;;;1.1;1.1;;;;;;;8.5;100.0;100700;;;;
2022/11/25 00:38:00;;;;;;;1.1;1.1;;;;;;;8.5;100.0;100700;;;;
2022/11/25 00:39:00;;;;;;;1.1;1.1;;;;;;;8.4;100.0;100700;;;;
2022/11/25 00:40:00;;;;;;;1.1;1.1;;;;;;;8.4;100.0;100700;;;;
2022/11/25 00:45:00;;;;;;;1.1;1.1;;;;;;;8.5;100.0;100690;;;;
2022/11/25 00:46:00;;;;;;;1.1;1.1;;;;;;;8.5;100.0;100690;;;;
2022/11/25 00:47:01;;;;;;;1.1;1.1;;;;;;;8.5;100.0;100690;;;;
2022/11/25 00:48:00;;;;;;;1.2;1.2;;;;;;;8.5;100.0;100690;;;;
2022/11/25 00:49:00;;;;;;;1.2;1.2;;;;;;;8.5;100.0;100690;;;;
2022/11/25 00:50:00;;;;;;;1.2;1.2;;;;;;;8.5;100.0;100690;;;;
2022/11/25 00:51:00;;;;;;;1.2;1.2;;;;;;;8.5;100.0;100690;;;;
2022/11/25 00:52:00;;;;;;;1.2;1.2;;;;;;;8.5;100.0;100690;;;;
2022/11/25 00:53:00;;;;;;;1.2;1.2;;;;;;;8.6;100.0;100690;;;;
2022/11/25 00:54:00;;;;;;;1.2;1.2;;;;;;;8.6;100.0;100690;;;;
2022/11/25 00:55:00;;;;;;;1.2;1.2;;;;;;;8.4;100.0;100700;;;;
2022/11/25 00:57:00;;;;;;;1.2;1.2;;;;;;;8.4;100.0;100700;;;;
2022/11/25 00:58:00;;;;;;;1.2;1.2;;;;;;;8.4;100.0;100700;;;;
2022/11/25 00:59:00;;;;;;;1.2;1.2;;;;;;;8.5;100.0;100700;;;;
2022/11/25 01:00:00;;;;;;;1.2;1.2;;;;;;;8.5;100.0;100700;;;;
2022/11/25 01:01:00;;;;;;;1.2;1.2;;;;;;;8.4;100.0;100700;;;;
2022/11/25 01:02:00;;;;;;;1.2;1.2;;;;;;;8.4;100.0;100700;;;;
2022/11/25 01:03:00;;;;;;;1.2;1.2;;;;;;;8.5;100.0;100690;;;;
2022/11/25 01:04:00;;;;;;;1.2;1.2;;;;;;;8.5;100.0;100690;;;;
2022/11/25 01:05:00;;;;;;;1.2;1.2;;;;;;;8.5;100.0;100700;;;;
2022/11/25 01:06:00;;;;;;;1.2;1.2;;;;;;;8.5;100.0;100700;;;;
2022/11/25 01:07:01;;;;;;;1.2;1.2;;;;;;;8.5;100.0;100700;;;;
2022/11/25 01:08:00;;;;;;;1.2;1.2;;;;;;;8.5;100.0;100700;;;;
2022/11/25 01:09:00;;;;;;;1.2;1.2;;;;;;;8.6;100.0;100700;;;;
2022/11/25 01:10:00;;;;;;;1.2;1.2;;;;;;;8.6;100.0;100700;;;;
2022/11/25 01:11:01;;;;;;;1.2;1.2;;;;;;;8.7;100.0;100690;;;;
2022/11/25 01:12:00;;;;;;;1.2;1.2;;;;;;;8.7;100.0;100690;;;;
2022/11/25 01:13:00;;;;;;;1.2;1.2;;;;;;;8.7;100.0;100700;;;;
2022/11/25 01:14:02;;;;;;;1.2;1.2;;;;;;;8.7;100.0;100700;;;;
2022/11/25 01:15:00;;;;;;;1.2;1.2;;;;;;;8.9;100.0;100690;;;;
2022/11/25 01:16:01;;;;;;;1.2;1.2;;;;;;;8.9;100.0;100690;;;;
2022/11/25 01:17:00;;;;;;;1.2;1.2;;;;;;;8.8;100.0;100700;;;;
2022/11/25 01:18:00;;;;;;;1.2;1.2;;;;;;;8.8;100.0;100700;;;;
2022/11/25 01:19:00;;;;;;;1.2;1.2;;;;;;;8.9;100.0;100690;;;;
2022/11/25 01:20:00;;;;;;;1.2;1.2;;;;;;;8.9;100.0;100690;;;;
2022/11/25 01:21:10;;;;;;;1.2;1.2;;;;;;;8.7;100.0;100690;;;;
2022/11/25 01:22:00;;;;;;;1.2;1.2;;;;;;;8.7;100.0;100690;;;;
2022/11/25 01:23:00;;;;;;;1.2;1.2;;;;;;;8.9;100.0;100690;;;;
2022/11/25 01:24:01;;;;;;;1.2;1.2;;;;;;;8.9;100.0;100690;;;;
2022/11/25 01:25:00;;;;;;;1.2;1.2;;;;;;;8.8;100.0;100690;;;;
2022/11/25 01:26:01;;;;;;;1.2;1.2;;;;;;;8.8;100.0;100690;;;;
2022/11/25 01:27:00;;;;;;;1.2;1.2;;;;;;;8.9;100.0;100690;;;;
2022/11/25 01:28:00;;;;;;;1.1;1.1;;;;;;;8.9;100.0;100690;;;;
2022/11/25 01:29:01;;;;;;;1.1;1.1;;;;;;;8.9;100.0;100700;;;;
2022/11/25 01:30:00;;;;;;;1.1;1.1;;;;;;;8.9;100.0;100700;;;;
2022/11/25 01:31:02;;;;;;;1.1;1.1;;;;;;;8.9;100.0;100700;;;;
2022/11/25 01:32:00;;;;;;;1.1;1.1;;;;;;;8.9;100.0;100700;;;;
2022/11/25 01:33:00;;;;;;;1.1;1.1;;;;;;;8.9;100.0;100700;;;;
2022/11/25 01:34:03;;;;;;;1.1;1.1;;;;;;;8.9;100.0;100700;;;;
2022/11/25 01:35:00;;;;;;;1.1;1.1;;;;;;;9.0;100.0;100700;;;;
2022/11/25 01:36:02;;;;;;;1.1;1.1;;;;;;;9.0;100.0;100700;;;;
2022/11/25 01:37:00;;;;;;;1.1;1.1;;;;;;;9.0;100.0;100710;;;;
2022/11/25 01:38:00;;;;;;;1.1;1.1;;;;;;;9.0;100.0;100710;;;;
2022/11/25 01:39:00;;;;;;;1.1;1.1;;;;;;;8.9;100.0;100710;;;;
2022/11/25 01:40:00;;;;;;;1.1;1.1;;;;;;;8.9;100.0;100710;;;;
2022/11/25 01:41:00;;;;;;;1.1;1.1;;;;;;;8.9;100.0;100710;;;;
2022/11/25 01:42:00;;;;;;;1.1;1.1;;;;;;;8.9;100.0;100710;;;;
2022/11/25 01:43:00;;;;;;;1.1;1.1;;;;;;;9.0;100.0;100710;;;;
2022/11/25 01:44:03;;;;;;;1.1;1.1;;;;;;;9.0;100.0;100710;;;;
2022/11/25 01:45:10;;;;;;;1.1;1.1;;;;;;;9.0;100.0;100720;;;;
2022/11/25 01:46:00;;;;;;;1.1;1.1;;;;;;;9.0;100.0;100720;;;;
2022/11/25 01:47:04;;;;;;;1.1;1.1;;;;;;;8.9;100.0;100720;;;;
2022/11/25 01:48:04;;;;;;;1.1;1.1;;;;;;;8.9;100.0;100720;;;;
2022/11/25 01:49:02;;;;;;;1.1;1.1;;;;;;;9.0;100.0;100720;;;;
2022/11/25 01:50:03;;;;;;;1.1;1.1;;;;;;;9.0;100.0;100720;;;;
2022/11/25 01:51:00;;;;;;;1.1;1.1;;;;;;;9.0;100.0;100720;;;;
2022/11/25 01:52:04;;;;;;;1.1;1.1;;;;;;;9.0;100.0;100720;;;;
2022/11/25 01:53:02;;;;;;;1.1;1.1;;;;;;;9.0;100.0;100720;;;;
2022/11/25 01:54:02;;;;;;;1.1;1.1;;;;;;;9.0;100.0;100720;;;;
2022/11/25 01:55:10;;;;;;;1.1;1.1;;;;;;;9.0;100.0;100720;;;;
2022/11/25 01:56:02;;;;;;;1.1;1.1;;;;;;;9.0;100.0;100720;;;;
2022/11/25 01:57:03;;;;;;;1.1;1.1;;;;;;;9.0;100.0;100710;;;;
2022/11/25 01:58:04;;;;;;;1.1;1.1;;;;;;;9.0;100.0;100710;;;;
2022/11/25 01:59:00;;;;;;;1.1;1.1;;;;;;;9.1;100.0;100720;;;;
2022/11/25 02:00:03;;;;;;;1.1;1.1;;;;;;;9.1;100.0;100720;;;;
2022/11/25 02:01:00;;;;;;;1.1;1.1;;;;;;;9.1;100.0;100720;;;;
2022/11/25 02:02:00;;;;;;;1.1;1.1;;;;;;;9.1;100.0;100720;;;;
2022/11/25 02:03:00;;;;;;;1.1;1.1;;;;;;;9.0;100.0;100710;;;;
2022/11/25 02:04:00;;;;;;;1.1;1.1;;;;;;;9.0;100.0;100710;;;;
2022/11/25 02:05:02;;;;;;;1.1;1.1;;;;;;;9.1;100.0;100720;;;;
2022/11/25 02:06:07;;;;;;;1.1;1.1;;;;;;;9.1;100.0;100720;;;;
2022/11/25 02:07:05;;;;;;;1.1;1.1;;;;;;;9.1;100.0;100720;;;;
2022/11/25 02:08:00;;;;;;;1.1;1.1;;;;;;;9.1;100.0;100720;;;;
2022/11/25 02:09:04;;;;;;;1.1;1.1;;;;;;;9.2;100.0;100730;;;;
2022/11/25 02:10:01;;;;;;;1.1;1.1;;;;;;;9.2;100.0;100730;;;;
2022/11/25 02:11:03;;;;;;;1.1;1.1;;;;;;;9.0;100.0;100730;;;;
2022/11/25 02:12:00;;;;;;;1.1;1.1;;;;;;;9.0;100.0;100730;;;;
2022/11/25 02:13:00;;;;;;;1.1;1.1;;;;;;;9.1;100.0;100720;;;;
2022/11/25 02:14:01;;;;;;;1.1;1.1;;;;;;;9.1;100.0;100720;;;;
2022/11/25 02:15:00;;;;;;;1.1;1.1;;;;;;;9.1;100.0;100730;;;;
2022/11/25 02:16:00;;;;;;;1.1;1.1;;;;;;;9.1;100.0;100730;;;;
2022/11/25 02:17:01;;;;;;;1.1;1.1;;;;;;;9.1;100.0;100730;;;;
2022/11/25 02:18:00;;;;;;;1.1;1.1;;;;;;;9.1;100.0;100730;;;;
2022/11/25 02:19:02;;;;;;;1.1;1.1;;;;;;;9.1;100.0;100740;;;;
2022/11/25 02:20:05;;;;;;;1.1;1.1;;;;;;;9.1;100.0;100740;;;;
2022/11/25 02:21:00;;;;;;;1.1;1.1;;;;;;;9.1;100.0;100740;;;;
2022/11/25 02:22:03;;;;;;;1.1;1.1;;;;;;;9.1;100.0;100740;;;;
2022/11/25 02:23:10;;;;;;;1.1;1.1;;;;;;;9.2;100.0;100740;;;;
2022/11/25 02:24:06;;;;;;;1.1;1.1;;;;;;;9.2;100.0;100740;;;;
2022/11/25 02:25:06;;;;;;;1.1;1.1;;;;;;;9.2;100.0;100740;;;;
2022/11/25 02:26:00;;;;;;;1.1;1.1;;;;;;;9.2;100.0;100740;;;;
2022/11/25 02:27:00;;;;;;;1.1;1.1;;;;;;;9.3;100.0;100740;;;;
2022/11/25 02:28:02;;;;;;;1.1;1.1;;;;;;;9.3;100.0;100740;;;;
2022/11/25 02:29:00;;;;;;;1.1;1.1;;;;;;;9.4;100.0;100740;;;;
2022/11/25 02:30:00;;;;;;;1.1;1.1;;;;;;;9.4;100.0;100740;;;;
2022/11/25 02:31:00;;;;;;;1.1;1.1;;;;;;;9.4;100.0;100740;;;;
2022/11/25 02:32:00;;;;;;;1.1;1.1;;;;;;;9.4;100.0;100740;;;;
2022/11/25 02:33:00;;;;;;;1.1;1.1;;;;;;;9.4;100.0;100740;;;;
2022/11/25 02:34:00;;;;;;;1.1;1.1;;;;;;;9.4;100.0;100740;;;;
2022/11/25 02:35:00;;;;;;;1.1;1.1;;;;;;;9.4;100.0;100750;;;;
2022/11/25 02:36:03;;;;;;;1.1;1.1;;;;;;;9.4;100.0;100750;;;;
2022/11/25 02:37:00;;;;;;;1.1;1.1;;;;;;;9.4;100.0;100750;;;;
2022/11/25 02:38:04;;;;;;;1.1;1.1;;;;;;;9.4;100.0;100750;;;;
2022/11/25 02:39:00;;;;;;;1.1;1.1;;;;;;;9.4;100.0;100760;;;;
2022/11/25 02:40:00;;;;;;;1.1;1.1;;;;;;;9.4;100.0;100760;;;;
2022/11/25 02:41:01;;;;;;;1.1;1.1;;;;;;;9.4;100.0;100760;;;;
2022/11/25 02:42:00;;;;;;;1.1;1.1;;;;;;;9.4;100.0;100760;;;;
2022/11/25 02:43:00;;;;;;;1.1;1.1;;;;;;;9.4;100.0;100750;;;;
2022/11/25 02:44:00;;;;;;;1.1;1.1;;;;;;;9.4;100.0;100750;;;;
2022/11/25 02:45:00;;;;;;;1.1;1.1;;;;;;;9.4;100.0;100760;;;;
2022/11/25 02:46:03;;;;;;;1.1;1.1;;;;;;;9.4;100.0;100760;;;;
2022/11/25 02:47:00;;;;;;;1.1;1.1;;;;;;;9.4;100.0;100750;;;;
2022/11/25 02:48:00;;;;;;;1.0;1.0;;;;;;;9.4;100.0;100750;;;;
2022/11/25 02:49:09;;;;;;;1.0;1.0;;;;;;;9.4;100.0;100760;;;;
2022/11/25 02:50:00;;;;;;;1.0;1.0;;;;;;;9.4;100.0;100760;;;;
2022/11/25 02:51:00;;;;;;;1.0;1.0;;;;;;;9.4;100.0;100760;;;;
2022/11/25 02:52:00;;;;;;;1.0;1.0;;;;;;;9.4;100.0;100760;;;;
2022/11/25 02:53:00;;;;;;;1.0;1.0;;;;;;;9.4;100.0;100760;;;;
2022/11/25 02:54:00;;;;;;;1.0;1.0;;;;;;;9.4;100.0;100760;;;;
2022/11/25 02:55:00;;;;;;;1.0;1.0;;;;;;;9.4;100.0;100770;;;;
2022/11/25 02:56:00;;;;;;;1.0;1.0;;;;;;;9.4;100.0;100770;;;;
2022/11/25 02:57:00;;;;;;;1.0;1.0;;;;;;;9.4;100.0;100760;;;;
2022/11/25 02:58:00;;;;;;;1.0;1.0;;;;;;;9.4;100.0;100760;;;;
2022/11/25 02:59:00;;;;;;;1.0;1.0;;;;;;;9.5;100.0;100760;;;;
2022/11/25 03:00:00;;;;;;;1.0;1.0;;;;;;;9.5;100.0;100760;;;;
2022/11/25 03:01:00;;;;;;;1.0;1.0;;;;;;;9.4;100.0;100770;;;;
2022/11/25 03:02:00;;;;;;;1.0;1.0;;;;;;;9.4;100.0;100770;;;;
2022/11/25 03:03:00;;;;;;;1.0;1.0;;;;;;;9.4;100.0;100770;;;;
2022/11/25 03:04:00;;;;;;;1.0;1.0;;;;;;;9.4;100.0;100770;;;;
2022/11/25 03:05:00;;;;;;;1.0;1.0;;;;;;;9.4;100.0;100770;;;;
2022/11/25 03:06:00;;;;;;;1.0;1.0;;;;;;;9.4;100.0;100770;;;;
2022/11/25 03:07:02;;;;;;;1.0;1.0;;;;;;;9.4;100.0;100780;;;;
2022/11/25 03:08:00;;;;;;;1.0;1.0;;;;;;;9.4;100.0;100780;;;;
2022/11/25 03:09:00;;;;;;;1.0;1.0;;;;;;;9.4;100.0;100780;;;;
2022/11/25 03:10:00;;;;;;;1.0;1.0;;;;;;;9.4;100.0;100780;;;;
2022/11/25 03:11:00;;;;;;;1.0;1.0;;;;;;;9.3;100.0;100780;;;;
2022/11/25 03:13:00;;;;;;;1.0;1.0;;;;;;;9.3;100.0;100780;;;;
2022/11/25 03:14:00;;;;;;;1.0;1.0;;;;;;;9.3;100.0;100780;;;;
2022/11/25 03:15:00;;;;;;;1.0;1.0;;;;;;;9.3;100.0;100770;;;;
2022/11/25 03:16:00;;;;;;;1.0;1.0;;;;;;;9.3;100.0;100770;;;;
2022/11/25 03:17:00;;;;;;;1.0;1.0;;;;;;;9.4;100.0;100760;;;;
2022/11/25 03:18:00;;;;;;;1.0;1.0;;;;;;;9.4;100.0;100760;;;;
2022/11/25 03:19:00;;;;;;;1.0;1.0;;;;;;;9.4;100.0;100750;;;;
2022/11/25 03:20:00;;;;;;;1.0;1.0;;;;;;;9.4;100.0;100750;;;;
2022/11/25 03:21:00;;;;;;;1.0;1.0;;;;;;;9.3;100.0;100730;;;;
2022/11/25 03:22:00;;;;;;;1.0;1.0;;;;;;;9.3;100.0;100730;;;;
2022/11/25 03:23:00;;;;;;;1.0;1.0;;;;;;;9.4;100.0;100700;;;;
2022/11/25 03:24:00;;;;;;;1.0;1.0;;;;;;;9.4;100.0;100700;;;;
2022/11/25 03:25:00;;;;;;;1.0;1.0;;;;;;;9.3;100.0;100710;;;;
2022/11/25 03:26:03;;;;;;;1.0;1.0;;;;;;;9.3;100.0;100710;;;;
2022/11/25 03:27:00;;;;;;;1.0;1.0;;;;;;;9.2;100.0;100720;;;;
2022/11/25 03:28:00;;;;;;;0.8;0.8;;;;;;;9.2;100.0;100720;;;;
2022/11/25 03:29:00;;;;;;;0.8;0.8;;;;;;;9.2;100.0;100720;;;;
2022/11/25 03:30:00;;;;;;;0.8;0.8;;;;;;;9.2;100.0;100720;;;;
2022/11/25 03:31:00;;;;;;;0.8;0.8;;;;;;;9.2;100.0;100730;;;;
2022/11/25 03:32:09;;;;;;;0.8;0.8;;;;;;;9.2;100.0;100730;;;;
2022/11/25 03:33:00;;;;;;;0.8;0.8;;;;;;;9.2;100.0;100740;;;;
2022/11/25 03:34:00;;;;;;;0.8;0.8;;;;;;;9.2;100.0;100740;;;;
2022/11/25 03:35:00;;;;;;;0.8;0.8;;;;;;;9.2;100.0;100740;;;;
2022/11/25 03:36:00;;;;;;;0.8;0.8;;;;;;;9.2;100.0;100740;;;;
2022/11/25 03:37:00;;;;;;;0.8;0.8;;;;;;;9.5;100.0;100750;;;;
2022/11/25 03:38:00;;;;;;;0.8;0.8;;;;;;;9.5;100.0;100750;;;;
2022/11/25 03:39:00;;;;;;;0.8;0.8;;;;;;;9.2;100.0;100750;;;;
2022/11/25 03:40:00;;;;;;;0.8;0.8;;;;;;;9.2;100.0;100750;;;;
2022/11/25 03:41:00;;;;;;;0.8;0.8;;;;;;;9.2;100.0;100760;;;;
2022/11/25 03:42:00;;;;;;;0.8;0.8;;;;;;;9.2;100.0;100760;;;;
2022/11/25 03:43:00;;;;;;;0.8;0.8;;;;;;;9.2;100.0;100760;;;;
2022/11/25 03:44:00;;;;;;;0.8;0.8;;;;;;;9.2;100.0;100760;;;;
2022/11/25 03:45:00;;;;;;;0.8;0.8;;;;;;;9.1;100.0;100750;;;;
2022/11/25 03:46:00;;;;;;;0.8;0.8;;;;;;;9.1;100.0;100750;;;;
2022/11/25 03:47:00;;;;;;;1.0;1.0;;;;;;;9.2;100.0;100740;;;;
2022/11/25 03:48:00;;;;;;;1.0;1.0;;;;;;;9.2;100.0;100740;;;;
2022/11/25 03:49:00;;;;;;;1.0;1.0;;;;;;;9.2;100.0;100760;;;;
2022/11/25 03:50:00;;;;;;;1.0;1.0;;;;;;;9.2;100.0;100760;;;;
2022/11/25 03:51:00;;;;;;;1.0;1.0;;;;;;;9.2;100.0;100770;;;;
2022/11/25 03:52:00;;;;;;;1.0;1.0;;;;;;;9.2;100.0;100770;;;;
2022/11/25 03:53:00;;;;;;;1.0;1.0;;;;;;;9.1;100.0;100780;;;;
2022/11/25 03:54:00;;;;;;;1.0;1.0;;;;;;;9.1;100.0;100780;;;;
2022/11/25 03:55:00;;;;;;;1.0;1.0;;;;;;;9.1;100.0;100780;;;;
2022/11/25 03:56:00;;;;;;;1.0;1.0;;;;;;;9.1;100.0;100780;;;;
2022/11/25 03:57:00;;;;;;;1.0;1.0;;;;;;;9.0;100.0;100790;;;;
2022/11/25 03:58:00;;;;;;;1.0;1.0;;;;;;;9.0;100.0;100790;;;;
2022/11/25 03:59:00;;;;;;;1.0;1.0;;;;;;;9.0;100.0;100790;;;;
2022/11/25 04:00:00;;;;;;;1.0;1.0;;;;;;;9.0;100.0;100790;;;;
2022/11/25 04:01:00;;;;;;;1.0;1.0;;;;;;;9.0;100.0;100780;;;;
2022/11/25 04:02:00;;;;;;;1.0;1.0;;;;;;;9.0;100.0;100780;;;;
2022/11/25 04:03:00;;;;;;;1.0;1.0;;;;;;;9.0;100.0;100790;;;;
2022/11/25 04:04:00;;;;;;;1.0;1.0;;;;;;;9.0;100.0;100790;;;;
2022/11/25 04:05:00;;;;;;;1.0;1.0;;;;;;;9.0;100.0;100790;;;;
2022/11/25 04:06:00;;;;;;;1.0;1.0;;;;;;;9.0;100.0;100790;;;;
2022/11/25 04:07:00;;;;;;;1.5;1.5;;;;;;;9.0;100.0;100790;;;;
2022/11/25 04:08:00;;;;;;;1.5;1.5;;;;;;;9.0;100.0;100790;;;;
2022/11/25 04:09:00;;;;;;;1.5;1.5;;;;;;;9.0;100.0;100790;;;;
2022/11/25 04:10:00;;;;;;;1.5;1.5;;;;;;;9.0;100.0;100790;;;;
2022/11/25 04:11:00;;;;;;;1.5;1.5;;;;;;;9.0;100.0;100790;;;;
2022/11/25 04:13:00;;;;;;;1.5;1.5;;;;;;;9.0;100.0;100780;;;;
2022/11/25 04:14:00;;;;;;;1.5;1.5;;;;;;;9.0;100.0;100780;;;;
2022/11/25 04:15:00;;;;;;;1.5;1.5;;;;;;;8.9;100.0;100790;;;;
2022/11/25 04:16:00;;;;;;;1.5;1.5;;;;;;;8.9;100.0;100790;;;;
2022/11/25 04:17:00;;;;;;;1.5;1.5;;;;;;;8.9;100.0;100790;;;;
2022/11/25 04:18:00;;;;;;;1.5;1.5;;;;;;;8.9;100.0;100790;;;;
2022/11/25 04:19:00;;;;;;;1.5;1.5;;;;;;;8.9;100.0;100790;;;;
2022/11/25 04:20:00;;;;;;;1.5;1.5;;;;;;;8.9;100.0;100790;;;;
2022/11/25 04:21:00;;;;;;;1.5;1.5;;;;;;;9.0;100.0;100790;;;;
2022/11/25 04:22:01;;;;;;;1.5;1.5;;;;;;;9.0;100.0;100790;;;;
2022/11/25 04:23:00;;;;;;;1.5;1.5;;;;;;;8.9;100.0;100800;;;;
2022/11/25 04:24:00;;;;;;;1.5;1.5;;;;;;;8.9;100.0;100800;;;;
2022/11/25 04:25:00;;;;;;;1.5;1.5;;;;;;;8.8;100.0;100810;;;;
2022/11/25 04:26:01;;;;;;;1.5;1.5;;;;;;;8.8;100.0;100810;;;;
2022/11/25 04:27:00;;;;;;;1.0;1.0;;;;;;;8.8;100.0;100820;;;;
2022/11/25 04:28:00;;;;;;;1.0;1.0;;;;;;;8.8;100.0;100820;;;;
2022/11/25 04:29:00;;;;;;;1.0;1.0;;;;;;;8.8;100.0;100820;;;;
2022/11/25 04:30:00;;;;;;;1.0;1.0;;;;;;;8.8;100.0;100820;;;;
2022/11/25 04:31:04;;;;;;;1.0;1.0;;;;;;;8.8;100.0;100830;;;;
2022/11/25 04:32:00;;;;;;;1.0;1.0;;;;;;;8.8;100.0;100830;;;;
2022/11/25 04:33:00;;;;;;;1.0;1.0;;;;;;;8.8;100.0;100820;;;;
2022/11/25 04:34:00;;;;;;;1.0;1.0;;;;;;;8.8;100.0;100820;;;;
2022/11/25 04:35:00;;;;;;;1.0;1.0;;;;;;;8.8;100.0;100830;;;;
2022/11/25 04:36:00;;;;;;;1.0;1.0;;;;;;;8.8;100.0;100830;;;;
2022/11/25 04:37:00;;;;;;;1.0;1.0;;;;;;;8.8;100.0;100830;;;;
2022/11/25 04:38:00;;;;;;;1.0;1.0;;;;;;;8.8;100.0;100830;;;;
2022/11/25 04:39:00;;;;;;;1.0;1.0;;;;;;;8.8;100.0;100830;;;;
2022/11/25 04:40:00;;;;;;;1.0;1.0;;;;;;;8.8;100.0;100830;;;;
2022/11/25 04:41:00;;;;;;;1.0;1.0;;;;;;;8.7;100.0;100840;;;;
2022/11/25 04:43:09;;;;;;;1.0;1.0;;;;;;;8.7;100.0;100840;;;;
2022/11/25 04:44:00;;;;;;;1.0;1.0;;;;;;;8.7;100.0;100840;;;;
2022/11/25 04:45:10;;;;;;;1.0;1.0;;;;;;;8.8;100.0;100840;;;;
2022/11/25 04:46:11;;;;;;;1.0;1.0;;;;;;;8.8;100.0;100840;;;;
2022/11/25 04:47:00;;;;;;;0.9;0.9;;;;;;;8.8;100.0;100850;;;;
2022/11/25 04:48:00;;;;;;;0.9;0.9;;;;;;;8.8;100.0;100850;;;;
2022/11/25 04:49:00;;;;;;;0.9;0.9;;;;;;;8.8;100.0;100850;;;;
2022/11/25 04:50:00;;;;;;;0.9;0.9;;;;;;;8.8;100.0;100850;;;;
2022/11/25 04:51:00;;;;;;;0.9;0.9;;;;;;;8.7;100.0;100850;;;;
2022/11/25 04:52:00;;;;;;;0.9;0.9;;;;;;;8.7;100.0;100850;;;;
2022/11/25 04:53:00;;;;;;;0.9;0.9;;;;;;;8.7;100.0;100850;;;;
2022/11/25 04:54:00;;;;;;;0.9;0.9;;;;;;;8.7;100.0;100850;;;;
2022/11/25 04:55:00;;;;;;;0.9;0.9;;;;;;;8.8;100.0;100860;;;;
2022/11/25 04:56:00;;;;;;;0.9;0.9;;;;;;;8.8;100.0;100860;;;;
2022/11/25 04:57:00;;;;;;;0.9;0.9;;;;;;;8.9;100.0;100860;;;;
2022/11/25 04:58:00;;;;;;;0.9;0.9;;;;;;;8.9;100.0;100860;;;;
2022/11/25 05:00:00;;;;;;;0.9;0.9;;;;;;;8.7;100.0;100860;;;;
2022/11/25 05:01:00;;;;;;;0.9;0.9;;;;;;;8.8;100.0;100860;;;;
2022/11/25 05:02:00;;;;;;;0.9;0.9;;;;;;;8.8;100.0;100860;;;;
2022/11/25 05:03:00;;;;;;;0.9;0.9;;;;;;;8.8;100.0;100870;;;;
2022/11/25 05:04:00;;;;;;;0.9;0.9;;;;;;;8.8;100.0;100870;;;;
2022/11/25 05:05:00;;;;;;;0.9;0.9;;;;;;;8.7;100.0;100860;;;;
2022/11/25 05:06:04;;;;;;;0.9;0.9;;;;;;;8.7;100.0;100860;;;;
2022/11/25 05:07:00;;;;;;;0.9;0.9;;;;;;;8.8;100.0;100860;;;;
2022/11/25 05:08:00;;;;;;;0.9;0.9;;;;;;;8.8;100.0;100860;;;;
2022/11/25 05:09:00;;;;;;;0.9;0.9;;;;;;;8.8;100.0;100860;;;;
2022/11/25 05:10:00;;;;;;;0.9;0.9;;;;;;;8.8;100.0;100860;;;;
2022/11/25 05:11:00;;;;;;;0.9;0.9;;;;;;;8.7;100.0;100860;;;;
2022/11/25 05:12:00;;;;;;;0.9;0.9;;;;;;;8.7;100.0;100860;;;;
2022/11/25 05:13:00;;;;;;;0.9;0.9;;;;;;;8.7;100.0;100860;;;;
2022/11/25 05:14:00;;;;;;;0.9;0.9;;;;;;;8.7;100.0;100860;;;;
2022/11/25 05:15:00;;;;;;;0.9;0.9;;;;;;;8.7;100.0;100870;;;;
2022/11/25 05:16:00;;;;;;;0.9;0.9;;;;;;;8.7;100.0;100870;;;;
2022/11/25 05:17:01;;;;;;;0.9;0.9;;;;;;;8.6;100.0;100870;;;;
2022/11/25 05:18:00;;;;;;;0.9;0.9;;;;;;;8.6;100.0;100870;;;;
2022/11/25 05:19:00;;;;;;;0.9;0.9;;;;;;;8.7;100.0;100880;;;;
2022/11/25 05:20:00;;;;;;;0.9;0.9;;;;;;;8.7;100.0;100880;;;;
2022/11/25 05:21:01;;;;;;;0.9;0.9;;;;;;;8.7;100.0;100880;;;;
2022/11/25 05:22:00;;;;;;;0.9;0.9;;;;;;;8.7;100.0;100880;;;;
2022/11/25 05:23:00;;;;;;;0.9;0.9;;;;;;;8.6;100.0;100880;;;;
2022/11/25 05:24:00;;;;;;;0.9;0.9;;;;;;;8.6;100.0;100880;;;;
2022/11/25 05:25:00;;;;;;;0.9;0.9;;;;;;;8.5;100.0;100880;;;;
2022/11/25 05:26:01;;;;;;;0.9;0.9;;;;;;;8.5;100.0;100880;;;;
2022/11/25 05:27:00;;;;;;;1.1;1.1;;;;;;;8.4;100.0;100880;;;;
2022/11/25 05:28:00;;;;;;;1.1;1.1;;;;;;;8.4;100.0;100880;;;;
2022/11/25 05:29:00;;;;;;;1.1;1.1;;;;;;;8.5;100.0;100890;;;;
2022/11/25 05:30:00;;;;;;;1.1;1.1;;;;;;;8.5;100.0;100890;;;;
2022/11/25 05:31:00;;;;;;;1.1;1.1;;;;;;;8.5;100.0;100890;;;;
2022/11/25 05:32:00;;;;;;;1.1;1.1;;;;;;;8.5;100.0;100890;;;;
2022/11/25 05:33:00;;;;;;;1.1;1.1;;;;;;;8.4;100.0;100880;;;;
2022/11/25 05:34:00;;;;;;;1.1;1.1;;;;;;;8.4;100.0;100880;;;;
2022/11/25 05:35:00;;;;;;;1.1;1.1;;;;;;;8.4;100.0;100880;;;;
2022/11/25 05:36:01;;;;;;;1.1;1.1;;;;;;;8.4;100.0;100880;;;;
2022/11/25 05:37:00;;;;;;;1.1;1.1;;;;;;;8.5;100.0;100880;;;;
2022/11/25 05:38:02;;;;;;;1.1;1.1;;;;;;;8.5;100.0;100880;;;;
2022/11/25 05:39:00;;;;;;;1.1;1.1;;;;;;;8.4;100.0;100880;;;;
2022/11/25 05:40:00;;;;;;;1.1;1.1;;;;;;;8.4;100.0;100880;;;;
2022/11/25 05:41:01;;;;;;;1.1;1.1;;;;;;;8.3;100.0;100880;;;;
2022/11/25 05:42:00;;;;;;;1.1;1.1;;;;;;;8.3;100.0;100880;;;;
2022/11/25 05:43:00;;;;;;;1.1;1.1;;;;;;;8.3;100.0;100880;;;;
2022/11/25 05:44:00;;;;;;;1.1;1.1;;;;;;;8.3;100.0;100880;;;;
2022/11/25 05:45:01;;;;;;;1.1;1.1;;;;;;;8.2;100.0;100880;;;;
2022/11/25 05:46:03;;;;;;;1.1;1.1;;;;;;;8.2;100.0;100880;;;;
2022/11/25 05:47:00;;;;;;;1.1;1.1;;;;;;;8.2;100.0;100880;;;;
2022/11/25 05:48:00;;;;;;;1.1;1.1;;;;;;;8.2;100.0;100880;;;;
2022/11/25 05:49:00;;;;;;;1.1;1.1;;;;;;;8.2;100.0;100880;;;;
2022/11/25 05:50:00;;;;;;;1.1;1.1;;;;;;;8.2;100.0;100880;;;;
2022/11/25 05:51:01;;;;;;;1.1;1.1;;;;;;;8.2;100.0;100880;;;;
2022/11/25 05:52:00;;;;;;;1.1;1.1;;;;;;;8.2;100.0;100880;;;;
2022/11/25 05:53:00;;;;;;;1.1;1.1;;;;;;;8.0;100.0;100890;;;;
2022/11/25 05:54:00;;;;;;;1.1;1.1;;;;;;;8.0;100.0;100890;;;;
2022/11/25 05:55:00;;;;;;;1.1;1.1;;;;;;;8.0;100.0;100890;;;;
2022/11/25 05:56:01;;;;;;;1.1;1.1;;;;;;;8.0;100.0;100890;;;;
2022/11/25 05:57:00;;;;;;;1.1;1.1;;;;;;;8.0;100.0;100890;;;;
2022/11/25 05:58:01;;;;;;;1.1;1.1;;;;;;;8.0;100.0;100890;;;;
2022/11/25 05:59:00;;;;;;;1.1;1.1;;;;;;;8.0;100.0;100900;;;;
2022/11/25 06:00:00;;;;;;;1.1;1.1;;;;;;;8.0;100.0;100900;;;;
2022/11/25 06:01:04;;;;;;;1.1;1.1;;;;;;;8.0;100.0;100900;;;;
2022/11/25 06:02:00;;;;;;;1.1;1.1;;;;;;;8.0;100.0;100900;;;;
2022/11/25 06:03:00;;;;;;;1.1;1.1;;;;;;;8.1;100.0;100900;;;;
2022/11/25 06:04:00;;;;;;;1.1;1.1;;;;;;;8.1;100.0;100900;;;;
2022/11/25 06:05:00;;;;;;;1.1;1.1;;;;;;;7.9;100.0;100900;;;;
2022/11/25 06:06:00;;;;;;;1.1;1.1;;;;;;;7.9;100.0;100900;;;;
2022/11/25 06:07:00;;;;;;;1.2;1.2;;;;;;;8.0;100.0;100910;;;;
2022/11/25 06:08:00;;;;;;;1.2;1.2;;;;;;;8.0;100.0;100910;;;;
2022/11/25 06:09:00;;;;;;;1.2;1.2;;;;;;;8.0;100.0;100910;;;;
2022/11/25 06:10:03;;;;;;;1.2;1.2;;;;;;;8.0;100.0;100910;;;;
2022/11/25 06:11:03;;;;;;;1.2;1.2;;;;;;;7.9;100.0;100920;;;;
2022/11/25 06:12:00;;;;;;;1.2;1.2;;;;;;;7.9;100.0;100920;;;;
2022/11/25 06:13:00;;;;;;;1.2;1.2;;;;;;;7.9;100.0;100920;;;;
2022/11/25 06:14:00;;;;;;;1.2;1.2;;;;;;;7.9;100.0;100920;;;;
2022/11/25 06:15:00;;;;;;;1.2;1.2;;;;;;;7.9;100.0;100920;;;;
2022/11/25 06:16:08;;;;;;;1.2;1.2;;;;;;;7.9;100.0;100920;;;;
2022/11/25 06:17:00;;;;;;;1.2;1.2;;;;;;;7.8;100.0;100920;;;;
2022/11/25 06:18:00;;;;;;;1.2;1.2;;;;;;;7.8;100.0;100920;;;;
2022/11/25 06:19:00;;;;;;;1.2;1.2;;;;;;;7.9;100.0;100920;;;;
2022/11/25 06:20:00;;;;;;;1.2;1.2;;;;;;;7.9;100.0;100920;;;;
2022/11/25 06:21:00;;;;;;;1.2;1.2;;;;;;;7.8;100.0;100920;;;;
2022/11/25 06:22:00;;;;;;;1.2;1.2;;;;;;;7.8;100.0;100920;;;;
2022/11/25 06:23:00;;;;;;;1.2;1.2;;;;;;;7.9;100.0;100920;;;;
2022/11/25 06:24:00;;;;;;;1.2;1.2;;;;;;;7.9;100.0;100920;;;;
2022/11/25 06:25:04;;;;;;;1.2;1.2;;;;;;;7.8;100.0;100930;;;;
2022/11/25 06:26:02;;;;;;;1.2;1.2;;;;;;;7.8;100.0;100930;;;;
2022/11/25 06:27:00;;;;;;;1.2;1.2;;;;;;;7.8;100.0;100920;;;;
2022/11/25 06:28:10;;;;;;;1.2;1.2;;;;;;;7.8;100.0;100920;;;;
2022/11/25 06:29:00;;;;;;;1.2;1.2;;;;;;;7.8;100.0;100930;;;;
2022/11/25 06:30:00;;;;;;;1.2;1.2;;;;;;;7.8;100.0;100930;;;;
2022/11/25 06:31:04;;;;;;;1.2;1.2;;;;;;;7.8;100.0;100930;;;;
2022/11/25 06:32:00;;;;;;;1.2;1.2;;;;;;;7.8;100.0;100930;;;;
2022/11/25 06:33:00;;;;;;;1.2;1.2;;;;;;;7.8;100.0;100930;;;;
2022/11/25 06:34:00;;;;;;;1.2;1.2;;;;;;;7.8;100.0;100930;;;;
2022/11/25 06:35:00;;;;;;;1.2;1.2;;;;;;;7.8;100.0;100940;;;;
2022/11/25 06:36:02;;;;;;;1.2;1.2;;;;;;;7.8;100.0;100940;;;;
2022/11/25 06:37:00;;;;;;;1.2;1.2;;;;;;;7.7;100.0;100930;;;;
2022/11/25 06:38:00;;;;;;;1.2;1.2;;;;;;;7.7;100.0;100930;;;;